In Rescue
 
Open Full Screen Window  High Contrast Mode
Wind Gusting 18 knots
12
May 25, 2022 9:03 PM EDT
Present Weather: Light Rain
Weather Information
Wind Direction
  090 °
Wind Speed
  12 kt (14 mph)
Wind Gust
  18 kt (21 mph)
Altimeter
29.92 in
Visibility
7 SM
Temperature
11° C
52° F
Dewpoint
10° C
50° F
Humidity
94%
1hr Rain Fall
00.07 in.
24hr Rain Fall
00.57 in.
Sky Condition
Overcast @ 600 ft
IFR

METAR KISQ 260103Z AUTO 09012G18KT 7SM -RA OVC006 11/10 A2992 RMK AO2 T01080097 P0007

FAA Disclaimer: The data displayed is for advisory purposes only and is not to be used for flight planning or operations.